createdAt,value
2024-04-23T00:00:10.971Z,70.71
2024-04-23T00:02:41.412Z,70.54
2024-04-23T00:05:12.087Z,70.68
2024-04-23T00:07:42.739Z,70.48
2024-04-23T00:10:10.717Z,71.11
2024-04-23T00:12:41.206Z,71.43
2024-04-23T00:15:09.057Z,71.81
2024-04-23T00:17:39.595Z,72.25
2024-04-23T00:20:11.301Z,72.76
2024-04-23T00:22:41.947Z,73.22
2024-04-23T00:25:09.842Z,73.29
2024-04-23T00:27:40.354Z,73.68
2024-04-23T00:30:09.414Z,73.90
2024-04-23T00:32:40.135Z,74.43
2024-04-23T00:35:10.935Z,74.65
2024-04-23T00:37:41.522Z,74.86
2024-04-23T00:40:10.196Z,75.27
2024-04-23T00:42:40.746Z,75.85
2024-04-23T00:45:09.586Z,76.28
2024-04-23T00:47:40.271Z,76.46
2024-04-23T00:50:12.108Z,76.81
2024-04-23T00:52:43.050Z,77.56
2024-04-23T00:55:12.759Z,77.90
2024-04-23T00:57:43.526Z,78.28
2024-04-23T01:00:13.035Z,78.66
2024-04-23T01:02:43.933Z,78.62
2024-04-23T01:05:14.865Z,79.41
2024-04-23T01:07:45.547Z,79.61
2024-04-23T01:10:14.032Z,80.02
2024-04-23T01:12:44.593Z,80.28
2024-04-23T01:15:14.766Z,80.77
2024-04-23T01:17:47.627Z,81.09
2024-04-23T01:20:20.744Z,81.10
2024-04-23T01:23:01.619Z,81.64
2024-04-23T01:25:30.735Z,81.83
2024-04-23T01:28:04.237Z,81.84
2024-04-23T01:30:32.870Z,82.13
2024-04-23T01:33:06.575Z,82.24
2024-04-23T01:35:35.395Z,82.00
2024-04-23T01:38:06.980Z,82.48
2024-04-23T01:40:35.263Z,82.40
2024-04-23T01:43:09.274Z,82.28
2024-04-23T01:45:37.994Z,82.86
2024-04-23T01:48:09.383Z,82.88
2024-04-23T01:50:37.816Z,82.65
2024-04-23T01:53:08.682Z,82.84
2024-04-23T01:55:36.580Z,82.89
2024-04-23T01:58:10.110Z,82.63
2024-04-23T02:00:39.960Z,82.52
2024-04-23T02:03:11.200Z,82.80
2024-04-23T02:05:41.839Z,82.47
2024-04-23T02:08:12.695Z,82.58
2024-04-23T02:10:43.707Z,82.88
2024-04-23T02:13:17.391Z,82.74
2024-04-23T02:15:45.282Z,82.71
2024-04-23T02:18:15.915Z,83.10
2024-04-23T02:20:43.767Z,83.35
2024-04-23T02:23:14.205Z,83.35
2024-04-23T02:25:42.054Z,83.45
2024-04-23T02:28:12.566Z,83.44
2024-04-23T02:30:43.535Z,83.31
2024-04-23T02:33:14.163Z,83.56
2024-04-23T02:35:42.116Z,83.22
2024-04-23T02:38:12.554Z,83.59
2024-04-23T02:40:40.606Z,83.37
2024-04-23T02:43:11.034Z,83.42
2024-04-23T02:45:39.332Z,83.12
2024-04-23T02:48:12.745Z,82.93
2024-04-23T02:50:40.648Z,83.10
2024-04-23T02:53:11.137Z,82.99
2024-04-23T02:55:39.404Z,82.79
2024-04-23T02:58:10.532Z,82.72
2024-04-23T03:00:38.496Z,82.94
2024-04-23T03:03:12.058Z,83.36
2024-04-23T03:05:42.760Z,83.28
2024-04-23T03:08:11.098Z,83.06
2024-04-23T03:10:41.743Z,83.11
2024-04-23T03:13:10.923Z,83.37
2024-04-23T03:15:41.359Z,83.62
2024-04-23T03:18:12.086Z,83.57
2024-04-23T03:20:42.718Z,83.39
2024-04-23T03:23:10.508Z,83.58
2024-04-23T03:25:41.152Z,83.37
2024-04-23T03:28:09.002Z,83.45
2024-04-23T03:30:39.537Z,83.53
2024-04-23T03:33:07.722Z,83.82
2024-04-23T03:35:40.935Z,83.85
2024-04-23T03:38:11.552Z,83.80
2024-04-23T03:40:42.358Z,83.65
2024-04-23T03:43:13.091Z,83.69
2024-04-23T03:45:43.719Z,83.64
2024-04-23T03:48:14.956Z,83.48
2024-04-23T03:50:45.979Z,83.52
2024-04-23T03:53:16.576Z,83.61
2024-04-23T03:55:44.460Z,83.69
2024-04-23T03:58:15.098Z,84.26
2024-04-23T04:00:46.436Z,83.87
2024-04-23T04:03:25.077Z,83.71
2024-04-23T04:06:07.814Z,83.76
2024-04-23T04:08:39.889Z,83.90
2024-04-23T04:11:08.036Z,83.72
2024-04-23T04:13:41.029Z,83.82
2024-04-23T04:16:09.205Z,84.03
2024-04-23T04:18:40.870Z,84.00
2024-04-23T04:21:11.452Z,84.13
2024-04-23T04:23:41.883Z,83.87
2024-04-23T04:26:13.433Z,83.79
2024-04-23T04:28:44.035Z,83.88
2024-04-23T04:31:13.876Z,84.05
2024-04-23T04:33:44.030Z,84.00
2024-04-23T04:36:14.545Z,83.82
2024-04-23T04:38:45.117Z,83.80
2024-04-23T04:41:13.091Z,83.70
2024-04-23T04:43:43.656Z,83.94
2024-04-23T04:46:11.613Z,83.88
2024-04-23T04:48:42.169Z,83.71
2024-04-23T04:51:10.346Z,83.51
2024-04-23T04:53:43.628Z,83.63
2024-04-23T04:56:11.548Z,83.68
2024-04-23T04:58:42.693Z,83.74
2024-04-23T05:01:10.997Z,83.54
2024-04-23T05:03:41.525Z,83.46
2024-04-23T05:06:09.359Z,83.42
2024-04-23T05:08:42.497Z,83.58
2024-04-23T05:11:10.600Z,83.67
2024-04-23T05:13:41.065Z,83.60
2024-04-23T05:16:09.078Z,82.81
2024-04-23T05:18:39.580Z,82.72
2024-04-23T05:21:07.526Z,82.71
2024-04-23T05:23:38.285Z,82.37
2024-04-23T05:26:08.860Z,81.93
2024-04-23T05:28:39.516Z,82.33
2024-04-23T05:31:18.213Z,81.94
2024-04-23T05:33:49.608Z,81.86
2024-04-23T05:36:24.041Z,81.28
2024-04-23T05:38:54.704Z,81.15
2024-04-23T05:41:27.818Z,81.07
2024-04-23T05:44:00.794Z,81.15
2024-04-23T05:46:31.544Z,80.15
2024-04-23T05:49:23.940Z,79.70
2024-04-23T05:52:30.377Z,79.66
2024-04-23T05:55:34.362Z,79.40
2024-04-23T05:58:05.173Z,78.84
2024-04-23T06:00:36.981Z,78.62
2024-04-23T06:03:05.381Z,78.01
2024-04-23T06:05:36.078Z,77.74
2024-04-23T06:08:04.806Z,77.45
2024-04-23T06:10:35.367Z,77.31
2024-04-23T06:13:08.926Z,76.82
2024-04-23T06:15:36.828Z,77.02
2024-04-23T06:18:07.755Z,76.89
2024-04-23T06:20:35.658Z,76.38
2024-04-23T06:23:06.248Z,76.01
2024-04-23T06:25:34.276Z,76.15
2024-04-23T06:28:09.780Z,76.44
2024-04-23T06:30:37.772Z,76.00
2024-04-23T06:33:08.927Z,76.60
2024-04-23T06:35:37.180Z,76.31
2024-04-23T06:38:07.915Z,76.63
2024-04-23T06:40:36.115Z,76.25
2024-04-23T06:43:09.187Z,75.14
2024-04-23T06:45:37.075Z,73.62
2024-04-23T06:48:07.843Z,73.39
2024-04-23T06:50:35.654Z,72.99
2024-04-23T06:53:07.835Z,71.89
2024-04-23T06:55:36.180Z,71.23
2024-04-23T06:58:09.742Z,70.47
2024-04-23T07:00:37.844Z,69.79
2024-04-23T07:03:08.613Z,69.03
2024-04-23T07:05:39.190Z,68.90
2024-04-23T07:08:07.909Z,69.22
2024-04-23T07:10:38.812Z,69.60
2024-04-23T07:13:09.426Z,69.27
2024-04-23T07:15:39.942Z,69.12
2024-04-23T07:18:08.786Z,68.71
2024-04-23T07:20:40.483Z,68.96
2024-04-23T07:23:12.447Z,68.33
2024-04-23T07:25:43.111Z,68.31
2024-04-23T07:28:13.648Z,68.74
2024-04-23T07:30:44.361Z,68.65
2024-04-23T07:33:12.459Z,68.36
2024-04-23T07:35:44.787Z,68.20
2024-04-23T07:38:13.196Z,68.30
2024-04-23T07:40:45.821Z,68.03
2024-04-23T07:43:16.539Z,68.06
2024-04-23T07:45:47.410Z,67.80
2024-04-23T07:48:15.277Z,67.28
2024-04-23T07:50:46.085Z,66.78
2024-04-23T07:53:14.329Z,67.05
2024-04-23T07:55:44.868Z,67.00
2024-04-23T07:58:12.754Z,66.96
2024-04-23T08:00:46.550Z,66.56
2024-04-23T08:03:14.422Z,66.43
2024-04-23T08:05:46.350Z,65.75
2024-04-23T08:08:14.425Z,65.12
2024-04-23T08:10:45.684Z,65.14
2024-04-23T08:13:14.831Z,65.04
2024-04-23T08:15:48.082Z,65.38
2024-04-23T08:18:16.178Z,65.42
2024-04-23T08:20:46.673Z,65.84
2024-04-23T08:23:14.465Z,65.12
2024-04-23T08:25:47.526Z,65.29
2024-04-23T08:28:16.479Z,65.36
2024-04-23T08:30:50.646Z,65.77
2024-04-23T08:33:21.246Z,65.80
2024-04-23T08:35:50.210Z,65.34
2024-04-23T08:38:20.641Z,65.59
2024-04-23T08:40:48.624Z,65.57
2024-04-23T08:43:24.141Z,65.66
2024-04-23T08:45:57.002Z,65.72
2024-04-23T08:48:33.936Z,65.59
2024-04-23T08:51:04.477Z,66.02
2024-04-23T08:53:37.913Z,66.07
2024-04-23T08:56:13.658Z,65.54
2024-04-23T08:58:46.392Z,65.13
2024-04-23T09:01:28.948Z,65.30
2024-04-23T09:03:58.187Z,65.63
2024-04-23T09:06:30.152Z,65.58
2024-04-23T09:08:59.531Z,65.87
2024-04-23T09:11:30.586Z,65.82
2024-04-23T09:13:58.761Z,65.79
2024-04-23T09:16:32.387Z,65.77
2024-04-23T09:19:00.411Z,65.87
2024-04-23T09:21:31.427Z,65.67
2024-04-23T09:24:01.887Z,65.57
2024-04-23T09:26:33.291Z,65.72
2024-04-23T09:29:01.408Z,66.02
2024-04-23T09:31:39.865Z,66.36
2024-04-23T09:34:12.459Z,66.59
2024-04-23T09:36:43.261Z,66.80
2024-04-23T09:39:17.075Z,66.73
2024-04-23T09:41:59.230Z,66.99
2024-04-23T09:44:27.735Z,66.80
2024-04-23T09:47:00.914Z,67.51
2024-04-23T09:49:35.752Z,68.02
2024-04-23T09:52:06.445Z,68.19
2024-04-23T09:54:41.958Z,68.39
2024-04-23T09:57:12.553Z,68.10
2024-04-23T09:59:40.682Z,68.47
2024-04-23T10:02:20.562Z,68.28
2024-04-23T10:04:51.532Z,67.90
2024-04-23T10:07:25.261Z,67.63
2024-04-23T10:09:53.962Z,67.10
2024-04-23T10:12:27.914Z,66.84
2024-04-23T10:15:05.012Z,66.55
2024-04-23T10:17:46.169Z,65.87
2024-04-23T10:20:18.775Z,65.33
2024-04-23T10:22:49.719Z,64.05
2024-04-23T10:25:19.839Z,64.13
2024-04-23T10:27:51.586Z,63.39
2024-04-23T10:30:20.122Z,61.28
2024-04-23T10:32:54.289Z,61.32
2024-04-23T10:35:27.704Z,59.54
2024-04-23T10:37:56.161Z,59.70
2024-04-23T10:40:27.599Z,59.48
2024-04-23T10:42:57.694Z,57.93
2024-04-23T10:45:28.494Z,58.15
2024-04-23T10:48:08.262Z,57.91
2024-04-23T10:50:38.819Z,57.73
2024-04-23T10:53:09.648Z,56.74
2024-04-23T10:55:40.521Z,56.33
2024-04-23T10:58:09.355Z,55.16
2024-04-23T11:00:40.168Z,55.98
2024-04-23T11:03:19.933Z,55.37
2024-04-23T11:05:51.459Z,55.71
2024-04-23T11:08:24.213Z,55.13
2024-04-23T11:10:57.016Z,55.22
2024-04-23T11:13:29.389Z,54.96
2024-04-23T11:16:03.645Z,53.96
2024-04-23T11:18:43.676Z,54.53
2024-04-23T11:21:14.703Z,54.41
2024-04-23T11:23:44.096Z,53.89
2024-04-23T11:26:14.727Z,53.22
2024-04-23T11:28:44.246Z,53.73
2024-04-23T11:31:18.270Z,53.13
2024-04-23T11:33:51.426Z,52.19
2024-04-23T11:36:28.921Z,51.65
2024-04-23T11:39:02.677Z,51.54
2024-04-23T11:41:33.567Z,51.53
2024-04-23T11:44:05.446Z,51.69
2024-04-23T11:46:36.190Z,51.61
2024-04-23T11:49:06.805Z,51.56
2024-04-23T11:51:37.337Z,50.92
2024-04-23T11:54:07.005Z,50.77
2024-04-23T11:56:37.238Z,49.83
2024-04-23T11:59:05.145Z,49.82
2024-04-23T12:01:35.727Z,49.38
2024-04-23T12:04:10.681Z,49.38
2024-04-23T12:06:40.773Z,49.03
2024-04-23T12:09:12.039Z,49.71
2024-04-23T12:11:40.713Z,49.29
2024-04-23T12:14:13.470Z,50.50
2024-04-23T12:16:44.698Z,49.54
2024-04-23T12:19:18.936Z,49.76
2024-04-23T12:21:46.930Z,49.66
2024-04-23T12:24:21.190Z,50.07
2024-04-23T12:26:52.849Z,49.84
2024-04-23T12:29:31.468Z,49.95
2024-04-23T12:31:59.500Z,49.56
2024-04-23T12:34:32.997Z,49.80
2024-04-23T12:37:01.032Z,49.68
2024-04-23T12:39:31.584Z,50.16
2024-04-23T12:42:09.345Z,50.42
2024-04-23T12:44:39.928Z,50.46
2024-04-23T12:47:11.362Z,49.98
2024-04-23T12:49:44.990Z,50.11
2024-04-23T12:52:15.574Z,50.41
2024-04-23T12:54:43.632Z,50.54
2024-04-23T12:57:14.369Z,50.46
2024-04-23T12:59:42.264Z,50.76
2024-04-23T13:02:14.123Z,51.66
2024-04-23T13:04:44.859Z,51.32
2024-04-23T13:07:15.359Z,51.15
2024-04-23T13:09:43.442Z,51.65
2024-04-23T13:12:13.950Z,51.01
2024-04-23T13:14:41.971Z,51.18
2024-04-23T13:17:12.468Z,51.61
2024-04-23T13:19:45.296Z,52.33
2024-04-23T13:22:23.671Z,51.86
2024-04-23T13:24:51.812Z,51.54
2024-04-23T13:27:22.295Z,52.35
2024-04-23T13:29:51.830Z,52.15
2024-04-23T13:32:22.544Z,51.94
2024-04-23T13:34:50.496Z,52.63
2024-04-23T13:37:23.956Z,52.41
2024-04-23T13:39:51.813Z,51.68
2024-04-23T13:42:22.381Z,51.80
2024-04-23T13:44:50.227Z,51.97
2024-04-23T13:47:20.901Z,52.05
2024-04-23T13:49:48.769Z,52.25
2024-04-23T13:52:19.303Z,52.91
2024-04-23T13:54:49.925Z,53.59
2024-04-23T13:57:20.458Z,53.41
2024-04-23T13:59:48.528Z,52.68
2024-04-23T14:02:19.266Z,53.29
2024-04-23T14:04:47.604Z,52.66
2024-04-23T14:07:21.185Z,52.99
2024-04-23T14:09:51.958Z,52.97
2024-04-23T14:12:24.871Z,52.62
2024-04-23T14:14:52.813Z,52.58
2024-04-23T14:17:23.321Z,53.57
2024-04-23T14:19:51.204Z,52.91
2024-04-23T14:22:21.722Z,52.69
2024-04-23T14:24:54.177Z,53.30
2024-04-23T14:27:24.847Z,52.60
2024-04-23T14:29:52.805Z,52.20
2024-04-23T14:32:23.996Z,52.15
2024-04-23T14:34:54.320Z,51.85
2024-04-23T14:37:25.967Z,51.52
2024-04-23T14:39:56.568Z,51.95
2024-04-23T14:42:27.135Z,51.47
2024-04-23T14:44:57.878Z,51.27
2024-04-23T14:47:30.174Z,51.01
2024-04-23T14:49:58.350Z,50.65
2024-04-23T14:52:28.787Z,51.20
2024-04-23T14:54:59.488Z,51.23
2024-04-23T14:57:30.075Z,50.65
2024-04-23T14:59:57.968Z,50.03
2024-04-23T15:02:28.451Z,48.76
2024-04-23T15:04:56.397Z,48.74
2024-04-23T15:07:32.362Z,48.85
2024-04-23T15:10:04.994Z,49.58
2024-04-23T15:12:35.647Z,49.52
2024-04-23T15:15:06.588Z,50.06
2024-04-23T15:17:36.510Z,50.07
2024-04-23T15:20:07.508Z,50.13
2024-04-23T15:22:35.410Z,50.30
2024-04-23T15:25:09.572Z,50.43
2024-04-23T15:27:37.424Z,50.47
2024-04-23T15:30:08.628Z,51.30
2024-04-23T15:32:39.542Z,51.05
2024-04-23T15:35:07.822Z,51.15
2024-04-23T15:37:38.499Z,51.23
2024-04-23T15:40:09.789Z,50.99
2024-04-23T15:42:40.907Z,51.74
2024-04-23T15:45:09.167Z,51.63
2024-04-23T15:47:39.953Z,52.32
2024-04-23T15:50:08.396Z,53.47
2024-04-23T15:52:39.205Z,54.33
2024-04-23T15:55:10.344Z,55.16
2024-04-23T15:57:41.333Z,56.01
2024-04-23T16:00:10.357Z,55.68
2024-04-23T16:02:40.965Z,55.83
2024-04-23T16:05:08.948Z,55.72
2024-04-23T16:07:39.436Z,56.57
2024-04-23T16:10:10.186Z,56.81
2024-04-23T16:12:40.696Z,56.48
2024-04-23T16:15:12.004Z,56.55
2024-04-23T16:17:40.725Z,56.62
2024-04-23T16:20:11.833Z,55.93
2024-04-23T16:22:39.782Z,55.66
2024-04-23T16:25:13.367Z,55.67
2024-04-23T16:27:41.244Z,55.63
2024-04-23T16:30:12.915Z,56.30
2024-04-23T16:32:40.896Z,56.06
2024-04-23T16:35:13.254Z,56.53
2024-04-23T16:37:41.317Z,57.54
2024-04-23T16:40:14.977Z,58.29
2024-04-23T16:42:44.663Z,58.45
2024-04-23T16:45:14.793Z,59.70
2024-04-23T16:47:42.729Z,61.23
2024-04-23T16:50:13.525Z,61.72
2024-04-23T16:52:41.602Z,62.73
2024-04-23T16:55:14.762Z,62.32
2024-04-23T16:57:43.439Z,62.37
2024-04-23T17:00:15.146Z,61.99
2024-04-23T17:02:43.158Z,61.75
2024-04-23T17:05:13.686Z,61.59
2024-04-23T17:07:41.565Z,62.35
2024-04-23T17:10:14.832Z,64.24
2024-04-23T17:12:42.795Z,65.52
2024-04-23T17:15:13.227Z,65.89
2024-04-23T17:17:41.313Z,67.27
2024-04-23T17:20:13.019Z,68.31
2024-04-23T17:22:42.533Z,68.39
2024-04-23T17:25:16.432Z,67.63
2024-04-23T17:27:44.977Z,67.53
2024-04-23T17:30:15.683Z,66.84
2024-04-23T17:32:43.558Z,67.22
2024-04-23T17:35:14.113Z,67.20
2024-04-23T17:37:42.187Z,67.16
2024-04-23T17:40:16.046Z,67.77
2024-04-23T17:42:44.646Z,68.62
2024-04-23T17:45:15.069Z,69.27
2024-04-23T17:47:43.205Z,69.08
2024-04-23T17:50:13.828Z,69.56
2024-04-23T17:52:44.436Z,69.33
2024-04-23T17:55:15.437Z,69.14
2024-04-23T17:57:46.020Z,69.06
2024-04-23T18:00:14.185Z,68.79
2024-04-23T18:02:46.113Z,68.40
2024-04-23T18:05:14.048Z,68.90
2024-04-23T18:07:44.587Z,68.80
2024-04-23T18:10:15.281Z,68.29
2024-04-23T18:12:46.523Z,68.30
2024-04-23T18:15:14.492Z,68.08
2024-04-23T18:17:45.314Z,67.90
2024-04-23T18:20:13.233Z,67.77
2024-04-23T18:22:43.702Z,67.75
2024-04-23T18:25:16.095Z,67.72
2024-04-23T18:27:46.629Z,68.04
2024-04-23T18:30:14.511Z,68.56
2024-04-23T18:32:45.168Z,68.77
2024-04-23T18:35:13.247Z,68.87
2024-04-23T18:37:44.827Z,68.97
2024-04-23T18:40:15.650Z,68.26
2024-04-23T18:42:47.220Z,68.45
2024-04-23T18:45:15.962Z,68.56
2024-04-23T18:47:48.295Z,68.72
2024-04-23T18:50:16.798Z,68.83
2024-04-23T18:52:47.475Z,69.70
2024-04-23T18:55:18.238Z,69.85
2024-04-23T18:57:48.752Z,70.17
2024-04-23T19:00:16.791Z,69.52
2024-04-23T19:02:47.383Z,69.61
2024-04-23T19:05:15.446Z,69.01
2024-04-23T19:07:46.730Z,69.14
2024-04-23T19:10:16.478Z,69.09
2024-04-23T19:12:52.129Z,68.64
2024-04-23T19:15:20.022Z,68.44
2024-04-23T19:17:51.265Z,68.27
2024-04-23T19:20:19.640Z,67.77
2024-04-23T19:22:50.248Z,67.47
2024-04-23T19:25:18.407Z,66.61
2024-04-23T19:27:54.074Z,66.82
2024-04-23T19:30:21.935Z,66.80
2024-04-23T19:32:52.425Z,66.45
2024-04-23T19:35:23.096Z,66.51
2024-04-23T19:37:51.538Z,66.73
2024-04-23T19:40:22.166Z,66.46
2024-04-23T19:42:54.904Z,66.23
2024-04-23T19:45:25.920Z,66.03
2024-04-23T19:47:54.497Z,66.11
2024-04-23T19:50:25.053Z,66.02
2024-04-23T19:52:53.000Z,66.62
2024-04-23T19:55:23.487Z,66.27
2024-04-23T19:58:05.505Z,66.07
2024-04-23T20:00:36.196Z,66.20
2024-04-23T20:03:07.032Z,66.04
2024-04-23T20:05:37.593Z,65.79
2024-04-23T20:08:08.736Z,66.23
2024-04-23T20:10:39.287Z,66.71
2024-04-23T20:13:12.564Z,67.31
2024-04-23T20:15:43.086Z,67.61
2024-04-23T20:18:13.629Z,68.19
2024-04-23T20:20:44.396Z,68.47
2024-04-23T20:23:15.077Z,67.89
2024-04-23T20:25:45.946Z,67.50
2024-04-23T20:28:19.339Z,67.29
2024-04-23T20:30:49.856Z,67.60
2024-04-23T20:33:20.543Z,67.50
2024-04-23T20:35:51.354Z,66.97
2024-04-23T20:38:21.844Z,66.78
2024-04-23T20:40:52.476Z,66.24
2024-04-23T20:43:25.765Z,66.13
2024-04-23T20:45:56.322Z,66.58
2024-04-23T20:48:27.313Z,66.43
2024-04-23T20:50:58.658Z,66.80
2024-04-23T20:53:29.267Z,67.10
2024-04-23T20:56:00.212Z,67.23
2024-04-23T20:58:33.451Z,67.38
2024-04-23T21:01:09.738Z,67.58
2024-04-23T21:03:41.362Z,67.75
2024-04-23T21:06:13.022Z,68.32
2024-04-23T21:08:44.103Z,67.80
2024-04-23T21:11:13.334Z,68.10
2024-04-23T21:13:48.362Z,68.16
2024-04-23T21:16:19.369Z,68.36
2024-04-23T21:18:50.404Z,68.36
2024-04-23T21:21:20.894Z,68.72
2024-04-23T21:23:51.605Z,68.49
2024-04-23T21:26:22.675Z,68.25
2024-04-23T21:28:56.145Z,67.95
2024-04-23T21:31:26.768Z,67.66
2024-04-23T21:33:57.294Z,67.33
2024-04-23T21:36:30.331Z,67.59
2024-04-23T21:39:01.243Z,67.58
2024-04-23T21:41:32.097Z,67.41
2024-04-23T21:44:05.449Z,67.09
2024-04-23T21:46:36.035Z,67.15
2024-04-23T21:49:06.682Z,67.64
2024-04-23T21:51:35.871Z,67.72
2024-04-23T21:54:07.313Z,68.06
2024-04-23T21:56:41.214Z,68.56
2024-04-23T21:59:14.590Z,69.20
2024-04-23T22:01:45.322Z,69.70
2024-04-23T22:04:16.055Z,70.08
2024-04-23T22:06:46.664Z,70.66
2024-04-23T22:09:17.385Z,70.98
2024-04-23T22:11:48.026Z,71.53
2024-04-23T22:14:21.417Z,72.42
2024-04-23T22:16:51.995Z,73.20
2024-04-23T22:19:22.503Z,74.23
2024-04-23T22:21:53.109Z,74.53
2024-04-23T22:24:23.665Z,75.34
2024-04-23T22:26:54.371Z,76.09
2024-04-23T22:29:28.148Z,76.74
2024-04-23T22:31:58.839Z,77.38
2024-04-23T22:34:29.493Z,77.64
2024-04-23T22:37:00.129Z,78.26
2024-04-23T22:39:30.809Z,78.52
2024-04-23T22:42:03.242Z,78.96
2024-04-23T22:44:36.545Z,79.34
2024-04-23T22:47:10.000Z,79.25
2024-04-23T22:49:40.698Z,79.70
2024-04-23T22:52:11.231Z,80.05
2024-04-23T22:54:42.268Z,80.17
2024-04-23T22:57:13.268Z,80.61
2024-04-23T22:59:46.634Z,80.79
2024-04-23T23:02:17.673Z,80.80
2024-04-23T23:04:48.368Z,81.02
2024-04-23T23:07:19.034Z,81.15
2024-04-23T23:09:49.688Z,80.89
2024-04-23T23:12:21.506Z,80.85
2024-04-23T23:14:54.776Z,80.06
2024-04-23T23:17:25.472Z,79.85
2024-04-23T23:19:56.046Z,79.70
2024-04-23T23:22:26.587Z,79.64
2024-04-23T23:24:57.324Z,79.20
2024-04-23T23:27:28.054Z,79.24
2024-04-23T23:30:01.361Z,79.13
2024-04-23T23:32:32.149Z,78.85
2024-04-23T23:35:03.351Z,78.41
2024-04-23T23:37:33.847Z,78.61
2024-04-23T23:40:05.694Z,78.64
2024-04-23T23:42:36.500Z,78.68
2024-04-23T23:45:10.789Z,78.83
2024-04-23T23:47:42.178Z,78.65
2024-04-23T23:50:12.943Z,78.80
2024-04-23T23:52:43.688Z,78.75
2024-04-23T23:55:14.288Z,78.68
2024-04-23T23:57:44.887Z,78.79
